METAR Data
IDs: Format: Raw Decoded Include TAF

Data at: 1725 UTC 20 May 2022

Region: TOP
KATL 201652Z 23009G19KT 10SM SCT038 BKN250 28/18 A3001 RMK AO2 SLP152 T02830178

KBOS 201654Z 09011KT 10SM FEW008 FEW025 SCT100 BKN250 14/11 A3005 RMK AO2 SLP176 T01440111

KBWI 201654Z 15007G14KT 110V180 10SM FEW070 BKN160 BKN250 29/21 A2986 RMK AO2 SLP109 T02940206

KCLE 201651Z 20012G21KT 10SM SCT020 BKN034 BKN250 24/19 A2966 RMK AO2 SLP055 T02440189

KCLT 201652Z 20015G20KT 10SM SCT050 33/19 A2998 RMK SLP140 T03280189

KCVG 201652Z 23010G19KT 10SM SCT150 BKN220 28/19 A2975 RMK AO2 PK WND 23028/1622 SLP063 T02830189

KDCA 201652Z 17010KT 10SM SCT095 BKN250 29/20 A2987 RMK AO2 SLP113 T02940200

KDEN 201653Z 06006KT 5SM -RASN BR BKN007 OVC015 03/02 A2983 RMK AO2 SLP091 P0007 T00280017

KDFW 201653Z 19026G35KT 8SM SCT031 31/21 A2959 RMK AO2 PK WND 18040/1627 SLP009 T03110206

KDTW 201653Z 23018KT 10SM BKN025 BKN050 28/17 A2960 RMK AO2 SLP018 T02780172 PNO $

KEWR 201651Z 13007KT 10SM FEW070 SCT110 BKN150 OVC250 19/14 A2997 RMK AO2 SLP149 T01940139

KFLL 201714Z 15009KT 10SM SCT028 BKN037 BKN070 BKN130 BKN250 31/26 A3003 RMK AO2 LTG DSNT ALQDS OCNL LTGICCG DSNT NW-NE AND SW CB DSNT NW-NE AND SW MOV N T03060256

KIAD 201652Z 19006KT 10SM SCT085 BKN180 29/20 A2988 RMK AO2 SLP114 T02890200

KIAH 201653Z 18014G24KT 10SM SCT038 32/22 A2971 RMK AO2 PK WND 16026/1639 SLP060 T03220217

KJFK 201651Z 13010KT 10SM FEW011 FEW085 BKN110 OVC250 15/13 A3000 RMK AO2 SLP158 T01500128

KLAS 201656Z 34021G33KT 10SM BKN250 22/M09 A2972 RMK AO2 PK WND 36041/1614 SLP040 T02221089

KLAX 201653Z 11007KT 7SM BKN018 OVC026 17/12 A2982 RMK AO2 SLP095 T01720122

KLGA 201651Z 05011G19KT 7SM FEW003 SCT075 BKN110 OVC250 15/12 A2999 RMK AO2 RAB03E14 SLP155 P0000 T01500122

KMCO 201653Z 13004KT 10SM FEW025 FEW090 SCT140 BKN170 OVC250 26/21 A3005 RMK AO2 SLP174 T02610206 $

KMDW 201653Z 21023G40KT 10SM FEW035 FEW150 BKN200 OVC250 27/19 A2945 RMK AO2 PK WND 21040/1651 WSHFT 1542 SLP961 T02720189

KMEM 201654Z 20015G30KT 10SM BKN041 BKN250 31/19 A2978 RMK AO2 PK WND 22030/1649 SLP079 T03060189

KMIA 201710Z 16009G16KT 10SM TS SCT020CB SCT110 BKN150 BKN250 29/26 A3004 RMK AO2 LTG DSNT NE RAB1655E08 OCNL LTGIC NW-NE TS NW-NE MOV N P0009 T02940256

KMSP 201653Z 24011G18KT 10SM FEW022 SCT120 BKN140 BKN250 14/08 A2949 RMK AO2 SLP985 T01440078

KORD 201651Z 22016G29KT 10SM SCT030 SCT150 OVC250 26/19 A2944 RMK AO2 PK WND 23035/1630 SLP963 T02610189

KPDX 201653Z 31005KT 10SM BKN055 11/03 A3029 RMK AO2 SLP258 T01110033

KPHL 201654Z 15013G18KT 10SM FEW060 FEW120 BKN250 30/16 A2989 RMK AO2 SLP122 T03000161

KPHX 201651Z 16005KT 10SM FEW250 30/M02 A2964 RMK AO2 SLP016 T03001017

KPIT 201651Z 21005KT 10SM SCT011 BKN048 OVC150 19/17 A2980 RMK AO2 RAE36 SLP093 P0002 T01940172

KSAN 201651Z 16008KT 10SM SCT019 OVC025 17/12 A2984 RMK AO2 SLP103 T01670117

KSEA 201722Z 03004KT 10SM BKN018 OVC033 11/06 A3028 RMK AO2 T01110056

KSFO 201656Z 34005KT 10SM FEW200 18/03 A2984 RMK AO2 SLP105 T01830033

KSLC 201654Z 34011KT 10SM FEW065 BKN090 BKN220 10/M06 A2994 RMK AO2 SLP120 VIRGA CB DSNT S TCU DSNT SW AND W VCSH T01001061

KSTL 201651Z 18009G16KT 10SM SCT070 SCT220 29/19 A2957 RMK AO2 SLP000 T02890194

KTPA 201653Z 19009KT 10SM FEW030 SCT080 BKN110 29/23 A3005 RMK AO2 SLP174 T02890233